Altair — 9LC2000 — position and weather

sailwx.info

Track history (hours):
 
Tides and Currents Weather Stations Pressure Air Temp Water Temp Dewpoint Dewpoint Depression Visibility Wind Speed Wind Dir Waves Ship Positions

Altair

Last reported at 2014-Jul-30 06:21 UTC. Time now 2014-Jul-30 11:10 UTC.
Position N 39°55' E 025°57'.

Length 108 m; draft 3.5 m.

Type: Cargo ship. MMSI: 667021000.

Date/timePositionNaut miles runAvg speedWind from/ knotsBaromVisibWave heightAir tempDewpointWater temp
2014-Jul-30 06:21N 39°55' E 025°57'69 7.1
2014-Jul-29 20:33N 38°46' E 025°46'8 7.4
2014-Jul-29 19:32N 38°39' E 025°46'70 6.9
2014-Jul-29 09:25N 37°40' E 026°33'7 7.7
2014-Jul-29 08:32N 37°34' E 026°39'8 7.3
2014-Jul-29 07:25N 37°28' E 026°45'14 7.4
2014-Jul-29 05:33N 37°16' E 026°54'8 7.8
2014-Jul-29 04:32N 37°09' E 026°59'8 7.6
2014-Jul-29 03:30N 37°03' E 027°04'22 6.5
2014-Jul-29 00:07N 36°45' E 027°21'6 7.4
2014-Jul-28 23:22N 36°40' E 027°20'6 7.4
2014-Jul-28 22:33N 36°37' E 027°27'  
Track history (hours):
 
Tides and Currents Weather Stations Pressure Air Temp Water Temp Dewpoint Dewpoint Depression Visibility Wind Speed Wind Dir Waves Ship Positions

Altair

Last reported at 2014-Jul-30 06:21 UTC. Time now 2014-Jul-30 11:10 UTC.
Position N 39°55' E 025°57'.

Length 108 m; draft 3.5 m.

Type: Cargo ship. MMSI: 667021000.

Date/timePositionNaut miles runAvg speedWind from/ knotsBaromVisibWave heightAir tempDewpointWater temp
2014-Jul-30 06:21N 39°55' E 025°57'69 7.1
2014-Jul-29 20:33N 38°46' E 025°46'8 7.4
2014-Jul-29 19:32N 38°39' E 025°46'70 6.9
2014-Jul-29 09:25N 37°40' E 026°33'7 7.7
2014-Jul-29 08:32N 37°34' E 026°39'8 7.3
2014-Jul-29 07:25N 37°28' E 026°45'14 7.4
2014-Jul-29 05:33N 37°16' E 026°54'8 7.8
2014-Jul-29 04:32N 37°09' E 026°59'8 7.6
2014-Jul-29 03:30N 37°03' E 027°04'22 6.5
2014-Jul-29 00:07N 36°45' E 027°21'6 7.4
2014-Jul-28 23:22N 36°40' E 027°20'6 7.4
2014-Jul-28 22:33N 36°37' E 027°27'  

Dump ship's entire track history